createdAt,value
2022-09-30T00:01:39.789Z,3.60
2022-09-30T00:04:10.692Z,4.35
2022-09-30T00:06:38.763Z,2.80
2022-09-30T00:09:07.069Z,1.50
2022-09-30T00:11:38.703Z,3.13
2022-09-30T00:14:09.969Z,1.35
2022-09-30T00:16:38.729Z,2.03
2022-09-30T00:19:06.975Z,2.50
2022-09-30T00:21:35.404Z,4.10
2022-09-30T00:24:04.698Z,2.78
2022-09-30T00:26:33.770Z,1.45
2022-09-30T00:29:02.961Z,1.73
2022-09-30T00:31:35.119Z,2.25
2022-09-30T00:34:09.498Z,2.13
2022-09-30T00:36:40.608Z,2.47
2022-09-30T00:39:09.859Z,1.23
2022-09-30T00:41:39.224Z,2.10
2022-09-30T00:44:50.874Z,1.80
2022-09-30T00:47:32.794Z,1.50
2022-09-30T00:50:03.906Z,2.35
2022-09-30T00:52:33.567Z,1.92
2022-09-30T00:55:04.776Z,2.88
2022-09-30T00:57:32.926Z,2.83
2022-09-30T01:00:02.457Z,2.05
2022-09-30T01:02:31.929Z,1.30
2022-09-30T01:05:00.048Z,2.10
2022-09-30T01:07:28.342Z,1.10
2022-09-30T01:09:58.062Z,2.03
2022-09-30T01:12:27.786Z,1.60
2022-09-30T01:14:59.069Z,2.45
2022-09-30T01:17:41.071Z,1.23
2022-09-30T01:21:00.098Z,1.75
2022-09-30T01:24:00.731Z,2.03
2022-09-30T01:26:56.425Z,1.40
2022-09-30T01:30:01.897Z,1.67
2022-09-30T01:32:43.656Z,3.03
2022-09-30T01:35:20.190Z,2.35
2022-09-30T01:38:01.783Z,1.30
2022-09-30T01:40:37.911Z,1.27
2022-09-30T01:43:11.740Z,2.33
2022-09-30T01:45:44.565Z,2.45
2022-09-30T01:48:21.002Z,1.98
2022-09-30T01:50:55.716Z,2.17
2022-09-30T01:53:32.704Z,2.67
2022-09-30T01:56:05.215Z,2.25
2022-09-30T01:58:40.904Z,1.50
2022-09-30T02:01:13.517Z,1.75
2022-09-30T02:03:48.886Z,1.50
2022-09-30T02:06:21.038Z,1.65
2022-09-30T02:08:52.456Z,1.30
2022-09-30T02:11:25.430Z,1.70
2022-09-30T02:13:59.308Z,1.05
2022-09-30T02:16:34.933Z,1.33
2022-09-30T02:19:10.499Z,2.28
2022-09-30T02:21:41.706Z,1.60
2022-09-30T02:24:15.165Z,1.50
2022-09-30T02:26:45.176Z,1.40
2022-09-30T02:31:47.657Z,1.05
2022-09-30T02:34:20.899Z,1.65
2022-09-30T02:36:53.917Z,1.77
2022-09-30T02:39:26.753Z,1.15
2022-09-30T02:42:02.439Z,1.40
2022-09-30T02:44:31.858Z,1.92
2022-09-30T02:47:11.577Z,1.63
2022-09-30T02:49:48.769Z,1.20
2022-09-30T02:52:28.726Z,1.45
2022-09-30T02:57:37.617Z,1.08
2022-09-30T03:00:12.531Z,1.30
2022-09-30T03:02:41.596Z,1.40
2022-09-30T03:05:12.257Z,1.50
2022-09-30T03:07:42.085Z,1.75
2022-09-30T03:10:15.053Z,1.15
2022-09-30T03:12:57.113Z,2.25
2022-09-30T03:15:40.264Z,1.08
2022-09-30T03:18:29.213Z,1.60
2022-09-30T03:21:10.077Z,1.15
2022-09-30T03:24:16.377Z,2.50
2022-09-30T03:26:55.823Z,2.58
2022-09-30T03:29:29.402Z,1.58
2022-09-30T03:32:08.169Z,1.88
2022-09-30T03:34:48.180Z,1.55
2022-09-30T03:39:57.815Z,2.10
2022-09-30T03:42:30.236Z,1.15
2022-09-30T03:45:05.817Z,1.30
2022-09-30T03:47:37.055Z,1.13
2022-09-30T03:50:10.083Z,1.35
2022-09-30T03:52:39.595Z,1.35
2022-09-30T03:55:11.540Z,1.40
2022-09-30T03:57:39.982Z,1.13
2022-09-30T04:00:09.219Z,1.30
2022-09-30T04:02:37.950Z,1.33
2022-09-30T04:05:07.277Z,1.92
2022-09-30T04:07:36.101Z,1.42
2022-09-30T04:10:06.488Z,1.67
2022-09-30T04:12:34.675Z,1.67
2022-09-30T04:15:02.715Z,1.23
2022-09-30T04:17:31.126Z,2.90
2022-09-30T04:19:59.160Z,1.25
2022-09-30T04:22:27.413Z,1.73
2022-09-30T04:24:55.470Z,1.80
2022-09-30T04:27:25.083Z,2.40
2022-09-30T04:29:53.172Z,2.67
2022-09-30T04:32:23.205Z,2.30
2022-09-30T04:37:19.428Z,3.00
2022-09-30T04:39:47.514Z,2.90
2022-09-30T04:42:16.632Z,3.15
2022-09-30T04:44:46.057Z,2.70
2022-09-30T04:47:15.105Z,2.83
2022-09-30T04:49:43.209Z,3.50
2022-09-30T04:52:11.414Z,3.05
2022-09-30T04:54:39.620Z,3.47
2022-09-30T04:57:07.696Z,3.10
2022-09-30T04:59:35.729Z,3.55
2022-09-30T05:02:05.537Z,3.80
2022-09-30T05:04:33.889Z,5.53
2022-09-30T05:07:02.039Z,6.93
2022-09-30T05:09:30.416Z,5.15
2022-09-30T05:11:58.574Z,4.57
2022-09-30T05:14:26.783Z,3.92
2022-09-30T05:16:54.861Z,4.50
2022-09-30T05:19:24.398Z,7.40
2022-09-30T05:21:53.180Z,3.95
2022-09-30T05:24:21.422Z,4.18
2022-09-30T05:26:49.556Z,2.35
2022-09-30T05:29:17.727Z,2.70
2022-09-30T05:31:45.987Z,3.00
2022-09-30T05:34:16.696Z,4.10
2022-09-30T05:36:46.186Z,2.50
2022-09-30T05:39:14.400Z,5.45
2022-09-30T05:41:42.658Z,5.22
2022-09-30T05:44:11.061Z,10.65
2022-09-30T05:46:39.213Z,6.53
2022-09-30T05:49:07.367Z,7.13
2022-09-30T05:51:36.436Z,11.50
2022-09-30T05:54:05.902Z,11.35
2022-09-30T05:56:34.641Z,15.05
2022-09-30T05:59:02.913Z,13.13
2022-09-30T06:01:31.103Z,14.45
2022-09-30T06:03:59.208Z,12.32
2022-09-30T06:06:27.699Z,10.57
2022-09-30T06:08:55.761Z,12.23
2022-09-30T06:11:25.289Z,15.85
2022-09-30T06:13:53.662Z,11.32
2022-09-30T06:16:22.048Z,12.77
2022-09-30T06:18:50.242Z,10.95
2022-09-30T06:21:19.452Z,10.90
2022-09-30T06:23:47.685Z,7.83
2022-09-30T06:26:16.557Z,15.00
2022-09-30T06:28:46.252Z,8.05
2022-09-30T06:31:14.752Z,6.57
2022-09-30T06:33:43.476Z,6.97
2022-09-30T06:36:11.672Z,6.28
2022-09-30T06:38:40.207Z,11.15
2022-09-30T06:41:09.077Z,8.77
2022-09-30T06:43:45.959Z,10.45
2022-09-30T06:46:30.546Z,8.63
2022-09-30T06:49:11.790Z,8.75
2022-09-30T06:51:40.771Z,7.20
2022-09-30T06:54:09.254Z,10.65
2022-09-30T06:56:38.073Z,7.40
2022-09-30T06:59:06.440Z,9.07
2022-09-30T07:01:35.891Z,6.45
2022-09-30T07:04:09.457Z,7.75
2022-09-30T07:06:39.093Z,8.93
2022-09-30T07:09:07.974Z,8.25
2022-09-30T07:11:36.710Z,6.13
2022-09-30T07:14:05.425Z,9.02
2022-09-30T07:16:35.428Z,6.75
2022-09-30T07:21:32.279Z,4.90
2022-09-30T07:24:00.489Z,7.68
2022-09-30T07:26:29.519Z,6.82
2022-09-30T07:28:57.568Z,6.00
2022-09-30T07:31:32.949Z,7.90
2022-09-30T07:34:03.643Z,7.68
2022-09-30T07:36:33.639Z,5.15
2022-09-30T07:39:06.379Z,9.07
2022-09-30T07:41:36.650Z,8.18
2022-09-30T07:44:06.335Z,6.05
2022-09-30T07:49:07.895Z,3.80
2022-09-30T07:51:37.916Z,5.25
2022-09-30T07:57:04.981Z,4.88
2022-09-30T07:59:27.415Z,6.18
2022-09-30T08:01:56.079Z,3.67
2022-09-30T08:04:27.129Z,4.22
2022-09-30T08:06:57.078Z,3.58
2022-09-30T08:11:54.971Z,3.63
2022-09-30T08:14:25.608Z,3.83
2022-09-30T08:16:55.880Z,3.40
2022-09-30T08:19:26.380Z,2.53
2022-09-30T08:21:54.835Z,3.28
2022-09-30T08:24:23.578Z,5.03
2022-09-30T08:26:51.997Z,4.15
2022-09-30T08:29:30.177Z,2.30
2022-09-30T08:32:08.500Z,2.25
2022-09-30T08:34:38.215Z,5.22
2022-09-30T08:37:09.159Z,3.92
2022-09-30T08:39:37.551Z,3.80
2022-09-30T08:42:38.021Z,3.65
2022-09-30T08:45:17.948Z,5.15
2022-09-30T08:47:52.559Z,3.65
2022-09-30T08:50:30.340Z,2.97
2022-09-30T08:53:02.212Z,2.15
2022-09-30T08:55:38.401Z,3.28
2022-09-30T08:58:07.868Z,2.05
2022-09-30T09:00:36.826Z,4.57
2022-09-30T09:03:05.281Z,2.00
2022-09-30T09:05:51.613Z,3.60
2022-09-30T09:08:30.967Z,4.03
2022-09-30T09:11:05.925Z,2.47
2022-09-30T09:13:47.646Z,1.77
2022-09-30T09:16:23.135Z,2.35
2022-09-30T09:19:04.253Z,2.25
2022-09-30T09:21:51.579Z,3.80
2022-09-30T09:24:22.335Z,3.55
2022-09-30T09:26:52.420Z,2.15
2022-09-30T09:29:28.915Z,1.73
2022-09-30T09:31:59.528Z,2.72
2022-09-30T09:34:34.820Z,10.35
2022-09-30T09:37:20.365Z,7.17
2022-09-30T09:40:10.933Z,11.80
2022-09-30T09:43:03.816Z,5.45
2022-09-30T09:45:37.109Z,5.13
2022-09-30T09:48:11.239Z,3.83
2022-09-30T09:50:50.922Z,8.10
2022-09-30T09:53:37.980Z,9.43
2022-09-30T09:56:18.651Z,9.20
2022-09-30T09:59:09.388Z,11.00
2022-09-30T10:01:51.474Z,4.93
2022-09-30T10:04:24.723Z,5.57
2022-09-30T10:06:55.288Z,9.57
2022-09-30T10:09:27.593Z,7.18
2022-09-30T10:12:27.847Z,7.05
2022-09-30T10:15:05.294Z,8.98
2022-09-30T10:17:35.537Z,9.50
2022-09-30T10:20:08.163Z,6.63
2022-09-30T10:22:37.590Z,5.38
2022-09-30T10:25:25.567Z,7.97
2022-09-30T10:27:57.298Z,4.05
2022-09-30T10:33:03.551Z,3.65
2022-09-30T10:35:32.006Z,5.95
2022-09-30T10:38:01.494Z,1.48
2022-09-30T10:40:31.888Z,1.75
2022-09-30T10:43:00.141Z,3.33
2022-09-30T10:45:36.723Z,2.53
2022-09-30T10:48:08.190Z,3.05
2022-09-30T10:50:36.652Z,2.30
2022-09-30T10:53:12.479Z,1.63
2022-09-30T10:55:45.668Z,2.50
2022-09-30T10:58:43.138Z,3.15
2022-09-30T11:01:22.818Z,2.97
2022-09-30T11:03:59.148Z,3.88
2022-09-30T11:06:30.369Z,4.65
2022-09-30T11:09:03.122Z,3.70
2022-09-30T11:11:38.225Z,1.73
2022-09-30T11:14:22.879Z,4.18
2022-09-30T11:17:03.505Z,9.38
2022-09-30T11:19:37.512Z,12.35
2022-09-30T11:22:20.568Z,3.55
2022-09-30T11:24:51.355Z,3.92
2022-09-30T11:27:28.505Z,5.55
2022-09-30T11:30:03.416Z,3.22
2022-09-30T11:32:42.384Z,3.33
2022-09-30T11:35:24.990Z,5.88
2022-09-30T11:38:11.399Z,4.43
2022-09-30T11:40:48.038Z,5.03
2022-09-30T11:43:28.170Z,3.75
2022-09-30T11:46:27.292Z,4.20
2022-09-30T11:49:18.639Z,2.45
2022-09-30T11:51:50.332Z,4.38
2022-09-30T11:54:30.214Z,1.67
2022-09-30T11:57:03.639Z,4.30
2022-09-30T11:59:39.318Z,1.73
2022-09-30T12:02:27.840Z,1.42
2022-09-30T12:05:00.772Z,2.03
2022-09-30T12:07:37.740Z,2.25
2022-09-30T12:10:18.427Z,3.03
2022-09-30T12:12:49.385Z,7.10
2022-09-30T12:15:21.600Z,5.72
2022-09-30T12:17:54.980Z,7.93
2022-09-30T12:20:28.802Z,8.52
2022-09-30T12:23:02.784Z,5.07
2022-09-30T12:25:37.766Z,6.03
2022-09-30T12:28:23.921Z,7.60
2022-09-30T12:31:01.409Z,7.45
2022-09-30T12:33:37.532Z,7.57
2022-09-30T12:36:24.852Z,3.13
2022-09-30T12:39:11.876Z,8.27
2022-09-30T12:41:55.495Z,8.65
2022-09-30T12:44:51.307Z,6.43
2022-09-30T12:47:32.618Z,3.05
2022-09-30T12:50:02.568Z,6.25
2022-09-30T12:52:35.334Z,3.65
2022-09-30T12:55:08.728Z,2.72
2022-09-30T12:57:41.451Z,4.72
2022-09-30T13:00:17.535Z,4.38
2022-09-30T13:02:50.801Z,3.10
2022-09-30T13:05:59.450Z,3.83
2022-09-30T13:08:44.473Z,6.57
2022-09-30T13:11:38.152Z,4.38
2022-09-30T13:14:26.437Z,2.60
2022-09-30T13:17:20.686Z,4.57
2022-09-30T13:19:51.998Z,1.90
2022-09-30T13:22:44.231Z,2.45
2022-09-30T13:25:15.437Z,2.88
2022-09-30T13:27:45.417Z,2.88
2022-09-30T13:30:39.527Z,2.65
2022-09-30T13:33:46.282Z,3.80
2022-09-30T13:36:28.552Z,2.03
2022-09-30T13:39:20.156Z,5.20
2022-09-30T13:42:03.277Z,2.80
2022-09-30T13:44:41.240Z,3.33
2022-09-30T13:47:18.939Z,3.43
2022-09-30T13:49:56.006Z,5.93
2022-09-30T13:52:29.087Z,1.73
2022-09-30T13:54:59.671Z,3.75
2022-09-30T13:57:34.940Z,4.82
2022-09-30T14:00:09.314Z,6.53
2022-09-30T14:02:57.302Z,4.63
2022-09-30T14:05:50.888Z,4.77
2022-09-30T14:08:50.400Z,3.92
2022-09-30T14:11:41.460Z,1.63
2022-09-30T14:14:34.900Z,2.10
2022-09-30T14:17:21.054Z,4.07
2022-09-30T14:20:16.999Z,2.13
2022-09-30T14:22:46.009Z,4.03
2022-09-30T14:25:18.255Z,2.45
2022-09-30T14:28:04.468Z,2.20
2022-09-30T14:30:40.407Z,1.80
2022-09-30T14:33:12.917Z,2.28
2022-09-30T14:35:43.236Z,3.28
2022-09-30T14:38:20.141Z,1.77
2022-09-30T14:40:53.098Z,2.28
2022-09-30T14:43:23.800Z,2.15
2022-09-30T14:45:55.203Z,2.35
2022-09-30T14:48:26.944Z,1.55
2022-09-30T14:51:00.944Z,1.27
2022-09-30T14:53:31.388Z,2.88
2022-09-30T14:56:01.320Z,1.83
2022-09-30T14:58:31.246Z,2.00
2022-09-30T15:01:06.154Z,1.55
2022-09-30T15:03:37.256Z,1.05
2022-09-30T15:06:06.501Z,1.85
2022-09-30T15:08:34.911Z,1.83
2022-09-30T15:11:04.954Z,1.08
2022-09-30T15:13:34.363Z,1.83
2022-09-30T15:16:02.996Z,1.48
2022-09-30T15:18:36.407Z,1.15
2022-09-30T15:21:12.146Z,1.35
2022-09-30T15:23:43.168Z,3.63
2022-09-30T15:31:21.228Z,2.78
2022-09-30T15:33:49.788Z,1.17
2022-09-30T15:36:19.885Z,2.15
2022-09-30T15:38:50.333Z,0.57
2022-09-30T15:41:20.184Z,2.40
2022-09-30T15:43:51.863Z,1.92
2022-09-30T15:46:27.161Z,1.55
2022-09-30T15:48:57.641Z,2.15
2022-09-30T15:54:00.430Z,1.38
2022-09-30T15:56:35.749Z,2.13
2022-09-30T15:59:06.605Z,2.78
2022-09-30T16:01:37.840Z,1.80
2022-09-30T16:04:15.277Z,1.05
2022-09-30T16:06:49.330Z,1.83
2022-09-30T16:09:24.718Z,0.98
2022-09-30T16:12:05.393Z,2.05
2022-09-30T16:14:37.382Z,1.20
2022-09-30T16:17:07.650Z,1.83
2022-09-30T16:19:35.972Z,2.20
2022-09-30T16:22:04.108Z,1.20
2022-09-30T16:24:51.038Z,1.30
2022-09-30T16:27:29.259Z,1.35
2022-09-30T16:29:58.736Z,2.83
2022-09-30T16:34:56.351Z,1.17
2022-09-30T16:37:24.626Z,6.47
2022-09-30T16:39:52.920Z,2.47
2022-09-30T16:42:21.028Z,3.67
2022-09-30T16:44:50.455Z,8.02
2022-09-30T16:49:47.996Z,3.10
2022-09-30T16:52:16.213Z,3.63
2022-09-30T16:54:44.374Z,4.65
2022-09-30T16:57:16.781Z,2.20
2022-09-30T16:59:44.895Z,2.17
2022-09-30T17:02:16.266Z,3.83
2022-09-30T17:04:45.507Z,4.18
2022-09-30T17:07:14.978Z,2.70
2022-09-30T17:09:45.884Z,1.52
2022-09-30T17:12:14.098Z,3.08
2022-09-30T17:14:43.927Z,2.70
2022-09-30T17:17:13.670Z,3.53
2022-09-30T17:19:43.445Z,2.20
2022-09-30T17:22:11.577Z,1.73
2022-09-30T17:24:40.269Z,2.15
2022-09-30T17:27:08.637Z,3.57
2022-09-30T17:29:42.049Z,2.58
2022-09-30T17:32:10.724Z,3.58
2022-09-30T17:34:39.277Z,3.95
2022-09-30T17:37:08.797Z,2.85
2022-09-30T17:42:22.758Z,5.20
2022-09-30T17:44:51.245Z,1.75
2022-09-30T17:47:19.448Z,1.50
2022-09-30T17:49:47.578Z,2.90
2022-09-30T17:52:18.158Z,3.45
2022-09-30T17:54:51.162Z,1.33
2022-09-30T17:57:20.882Z,1.58
2022-09-30T17:59:48.962Z,2.60
2022-09-30T18:02:17.688Z,2.30
2022-09-30T18:04:46.434Z,3.60
2022-09-30T18:07:16.025Z,2.45
2022-09-30T18:12:12.410Z,1.75
2022-09-30T18:14:40.447Z,1.10
2022-09-30T18:17:08.699Z,1.38
2022-09-30T18:19:36.988Z,4.13
2022-09-30T18:22:05.185Z,0.95
2022-09-30T18:24:53.562Z,0.85
2022-09-30T18:27:22.767Z,0.65
2022-09-30T18:29:51.122Z,1.35
2022-09-30T18:32:19.517Z,0.47
2022-09-30T18:34:47.887Z,1.35
2022-09-30T18:37:16.275Z,1.25
2022-09-30T18:39:46.072Z,0.40
2022-09-30T18:42:14.416Z,0.28
2022-09-30T18:44:44.186Z,0.85
2022-09-30T18:47:12.538Z,1.35
2022-09-30T18:49:40.898Z,0.20
2022-09-30T18:52:09.258Z,0.57
2022-09-30T18:54:37.695Z,0.10
2022-09-30T18:57:07.531Z,0.10
2022-09-30T18:59:35.569Z,0.70
2022-09-30T19:02:04.174Z,0.55
2022-09-30T19:04:32.632Z,0.03
2022-09-30T19:07:00.999Z,0.10
2022-09-30T19:09:29.338Z,0.00
2022-09-30T19:11:57.497Z,0.10
2022-09-30T19:14:30.630Z,0.52
2022-09-30T19:16:58.991Z,0.10
2022-09-30T19:19:27.436Z,0.45
2022-09-30T19:22:00.274Z,2.47
2022-09-30T19:24:28.359Z,2.75
2022-09-30T19:26:56.456Z,0.32
2022-09-30T19:29:26.041Z,1.67
2022-09-30T19:31:54.169Z,3.05
2022-09-30T19:34:31.080Z,0.98
2022-09-30T19:37:00.233Z,4.18
2022-09-30T19:39:40.321Z,1.55
2022-09-30T19:42:15.118Z,1.50
2022-09-30T19:44:44.541Z,1.85
2022-09-30T19:47:12.708Z,2.08
2022-09-30T19:49:40.751Z,4.05
2022-09-30T19:52:18.305Z,2.50
2022-09-30T19:54:50.796Z,1.85
2022-09-30T19:57:18.867Z,2.78
2022-09-30T19:59:48.272Z,2.83
2022-09-30T20:02:16.502Z,4.00
2022-09-30T20:04:45.477Z,3.13
2022-09-30T20:07:14.992Z,4.03
2022-09-30T20:09:43.776Z,2.42
2022-09-30T20:12:12.260Z,3.33
2022-09-30T20:14:57.815Z,2.65
2022-09-30T20:17:29.080Z,2.35
2022-09-30T20:20:14.752Z,2.30
2022-09-30T20:22:43.066Z,2.33
2022-09-30T20:25:11.723Z,2.45
2022-09-30T20:27:42.893Z,3.83
2022-09-30T20:30:11.751Z,5.20
2022-09-30T20:32:41.317Z,6.30
2022-09-30T20:35:11.575Z,6.57
2022-09-30T20:37:40.933Z,6.38
2022-09-30T20:40:10.337Z,3.90
2022-09-30T20:42:40.085Z,3.13
2022-09-30T20:47:40.535Z,2.45
2022-09-30T20:52:36.880Z,4.68
2022-09-30T20:55:06.047Z,2.33
2022-09-30T20:57:34.143Z,2.30
2022-09-30T21:00:02.744Z,1.60
2022-09-30T21:02:30.910Z,3.15
2022-09-30T21:05:02.155Z,1.33
2022-09-30T21:07:31.010Z,0.93
2022-09-30T21:09:59.088Z,4.10
2022-09-30T21:12:27.152Z,2.50
2022-09-30T21:14:56.063Z,1.27
2022-09-30T21:17:24.137Z,2.25
2022-09-30T21:19:52.310Z,0.50
2022-09-30T21:22:21.727Z,0.43
2022-09-30T21:24:49.812Z,0.40
2022-09-30T21:27:17.896Z,2.60
2022-09-30T21:29:46.091Z,0.80
2022-09-30T21:32:15.391Z,0.30
2022-09-30T21:34:43.475Z,0.43
2022-09-30T21:37:12.196Z,0.52
2022-09-30T21:39:41.915Z,0.60
2022-09-30T21:42:10.166Z,0.22
2022-09-30T21:44:38.236Z,0.95
2022-09-30T21:47:06.451Z,1.42
2022-09-30T21:49:34.571Z,2.38
2022-09-30T21:52:07.664Z,2.13
2022-09-30T21:54:36.117Z,2.50
2022-09-30T21:57:05.848Z,2.10
2022-09-30T21:59:35.921Z,1.33
2022-09-30T22:02:05.456Z,1.30
2022-09-30T22:04:33.552Z,1.80
2022-09-30T22:07:01.600Z,2.30
2022-09-30T22:09:29.678Z,2.67
2022-09-30T22:11:58.175Z,1.45
2022-09-30T22:14:27.625Z,2.25
2022-09-30T22:16:55.898Z,2.88
2022-09-30T22:19:24.182Z,1.33
2022-09-30T22:21:52.264Z,1.48
2022-09-30T22:24:23.161Z,1.20
2022-09-30T22:26:51.795Z,1.30
2022-09-30T22:29:19.925Z,2.30
2022-09-30T22:31:49.394Z,1.63
2022-09-30T22:34:34.955Z,0.70
2022-09-30T22:37:20.543Z,1.95
2022-09-30T22:39:48.599Z,0.93
2022-09-30T22:42:16.790Z,0.93
2022-09-30T22:44:46.306Z,1.35
2022-09-30T22:47:16.057Z,1.52
2022-09-30T22:49:44.840Z,2.42
2022-09-30T22:52:14.173Z,1.00
2022-09-30T22:54:42.282Z,1.30
2022-09-30T22:57:12.303Z,3.10
2022-09-30T22:59:41.785Z,1.15
2022-09-30T23:02:10.105Z,2.13
2022-09-30T23:04:39.578Z,1.85
2022-09-30T23:07:07.672Z,1.27
2022-09-30T23:09:35.814Z,2.40
2022-09-30T23:12:03.993Z,1.48
2022-09-30T23:14:32.215Z,0.60
2022-09-30T23:17:00.287Z,0.90
2022-09-30T23:19:28.354Z,0.73
2022-09-30T23:21:57.809Z,0.85
2022-09-30T23:24:25.963Z,0.82
2022-09-30T23:26:54.008Z,2.35
2022-09-30T23:29:22.109Z,0.77
2022-09-30T23:32:28.081Z,0.60
2022-09-30T23:34:56.247Z,1.13
2022-09-30T23:37:25.747Z,0.88
2022-09-30T23:39:53.958Z,0.60
2022-09-30T23:42:22.206Z,0.98
2022-09-30T23:44:50.328Z,1.42
2022-09-30T23:47:21.514Z,1.05
2022-09-30T23:49:50.513Z,1.13
2022-09-30T23:52:18.735Z,0.90
2022-09-30T23:54:48.344Z,2.10
2022-09-30T23:57:16.517Z,1.58
2022-09-30T23:59:44.705Z,1.20
